sensor_id;sensor_type;location;lat;lon;timestamp;pressure;altitude;pressure_sealevel;temperature;humidity
67697;BME280;54486;51.442;6.778;2023-07-29T00:01:56;100498.94;;;19.17;100.00
67697;BME280;54486;51.442;6.778;2023-07-29T00:04:24;100499.06;;;19.14;100.00
67697;BME280;54486;51.442;6.778;2023-07-29T00:06:51;100508.69;;;19.15;100.00
67697;BME280;54486;51.442;6.778;2023-07-29T00:09:19;100500.00;;;19.13;100.00
67697;BME280;54486;51.442;6.778;2023-07-29T00:11:47;100520.38;;;19.11;100.00
67697;BME280;54486;51.442;6.778;2023-07-29T00:14:15;100514.13;;;19.12;100.00
67697;BME280;54486;51.442;6.778;2023-07-29T00:16:44;100500.91;;;19.12;100.00
67697;BME280;54486;51.442;6.778;2023-07-29T00:19:11;100501.84;;;19.11;100.00
67697;BME280;54486;51.442;6.778;2023-07-29T00:21:40;100487.78;;;19.11;100.00
67697;BME280;54486;51.442;6.778;2023-07-29T00:24:07;100483.34;;;19.11;100.00
67697;BME280;54486;51.442;6.778;2023-07-29T00:26:35;100484.41;;;19.07;100.00
67697;BME280;54486;51.442;6.778;2023-07-29T00:29:03;100476.63;;;19.04;100.00
67697;BME280;54486;51.442;6.778;2023-07-29T00:31:30;100481.91;;;19.04;100.00
67697;BME280;54486;51.442;6.778;2023-07-29T00:33:57;100472.19;;;19.05;100.00
67697;BME280;54486;51.442;6.778;2023-07-29T00:36:26;100480.97;;;19.05;100.00
67697;BME280;54486;51.442;6.778;2023-07-29T00:38:53;100471.34;;;19.04;100.00
67697;BME280;54486;51.442;6.778;2023-07-29T00:41:21;100478.31;;;19.05;100.00
67697;BME280;54486;51.442;6.778;2023-07-29T00:43:48;100473.03;;;19.05;100.00
67697;BME280;54486;51.442;6.778;2023-07-29T00:46:16;100473.84;;;19.07;100.00
67697;BME280;54486;51.442;6.778;2023-07-29T00:48:43;100475.53;;;19.08;100.00
67697;BME280;54486;51.442;6.778;2023-07-29T00:51:10;100481.75;;;19.07;100.00
67697;BME280;54486;51.442;6.778;2023-07-29T00:53:38;100480.03;;;19.06;100.00
67697;BME280;54486;51.442;6.778;2023-07-29T00:56:06;100472.09;;;19.06;100.00
67697;BME280;54486;51.442;6.778;2023-07-29T00:58:33;100469.47;;;19.06;100.00
67697;BME280;54486;51.442;6.778;2023-07-29T01:01:01;100465.97;;;19.06;100.00
67697;BME280;54486;51.442;6.778;2023-07-29T01:03:27;100466.81;;;19.06;100.00
67697;BME280;54486;51.442;6.778;2023-07-29T01:08:51;100464.03;;;19.09;100.00
67697;BME280;54486;51.442;6.778;2023-07-29T01:11:45;100467.47;;;19.11;100.00
67697;BME280;54486;51.442;6.778;2023-07-29T01:16:57;100462.03;;;19.14;100.00
67697;BME280;54486;51.442;6.778;2023-07-29T01:22:07;100449.59;;;19.16;100.00
67697;BME280;54486;51.442;6.778;2023-07-29T01:24:34;100443.44;;;19.16;100.00
67697;BME280;54486;51.442;6.778;2023-07-29T01:27:02;100438.16;;;19.16;100.00
67697;BME280;54486;51.442;6.778;2023-07-29T01:29:31;100435.44;;;19.17;100.00
67697;BME280;54486;51.442;6.778;2023-07-29T01:32:04;100439.00;;;19.16;100.00
67697;BME280;54486;51.442;6.778;2023-07-29T01:34:53;100446.03;;;19.17;100.00
67697;BME280;54486;51.442;6.778;2023-07-29T01:37:26;100439.78;;;19.18;100.00
67697;BME280;54486;51.442;6.778;2023-07-29T01:39:56;100445.88;;;19.20;100.00
67697;BME280;54486;51.442;6.778;2023-07-29T01:42:24;100442.44;;;19.18;100.00
67697;BME280;54486;51.442;6.778;2023-07-29T01:44:55;100438.91;;;19.18;100.00
67697;BME280;54486;51.442;6.778;2023-07-29T01:47:22;100442.44;;;19.18;100.00
67697;BME280;54486;51.442;6.778;2023-07-29T01:49:49;100448.56;;;19.19;100.00
67697;BME280;54486;51.442;6.778;2023-07-29T01:52:16;100441.56;;;19.18;100.00
67697;BME280;54486;51.442;6.778;2023-07-29T01:54:43;100445.88;;;19.20;100.00
67697;BME280;54486;51.442;6.778;2023-07-29T01:57:10;100444.16;;;19.19;100.00
67697;BME280;54486;51.442;6.778;2023-07-29T01:59:38;100431.84;;;19.18;100.00
67697;BME280;54486;51.442;6.778;2023-07-29T02:02:05;100426.41;;;19.21;100.00
67697;BME280;54486;51.442;6.778;2023-07-29T02:04:33;100424.56;;;19.23;100.00
67697;BME280;54486;51.442;6.778;2023-07-29T02:07:00;100426.25;;;19.24;100.00
67697;BME280;54486;51.442;6.778;2023-07-29T02:09:34;100417.53;;;19.22;100.00
67697;BME280;54486;51.442;6.778;2023-07-29T02:12:03;100417.53;;;19.22;100.00
67697;BME280;54486;51.442;6.778;2023-07-29T02:14:31;100414.13;;;19.20;100.00
67697;BME280;54486;51.442;6.778;2023-07-29T02:16:58;100417.53;;;19.22;100.00
67697;BME280;54486;51.442;6.778;2023-07-29T02:19:25;100408.84;;;19.20;100.00
67697;BME280;54486;51.442;6.778;2023-07-29T02:21:52;100413.28;;;19.20;100.00
67697;BME280;54486;51.442;6.778;2023-07-29T02:24:19;100419.41;;;19.20;100.00
67697;BME280;54486;51.442;6.778;2023-07-29T02:26:47;100424.72;;;19.20;100.00
67697;BME280;54486;51.442;6.778;2023-07-29T02:29:14;100430.88;;;19.21;100.00
67697;BME280;54486;51.442;6.778;2023-07-29T02:31:42;100437.94;;;19.20;100.00
67697;BME280;54486;51.442;6.778;2023-07-29T02:34:10;100433.41;;;19.22;100.00
67697;BME280;54486;51.442;6.778;2023-07-29T02:36:37;100428.13;;;19.22;100.00
67697;BME280;54486;51.442;6.778;2023-07-29T02:39:05;100426.25;;;19.24;100.00
67697;BME280;54486;51.442;6.778;2023-07-29T02:41:33;100420.97;;;19.24;100.00
67697;BME280;54486;51.442;6.778;2023-07-29T02:44:01;100429.84;;;19.23;100.00
67697;BME280;54486;51.442;6.778;2023-07-29T02:46:28;100422.84;;;19.22;100.00
67697;BME280;54486;51.442;6.778;2023-07-29T02:48:55;100426.41;;;19.21;100.00
67697;BME280;54486;51.442;6.778;2023-07-29T02:51:23;100431.53;;;19.24;100.00
67697;BME280;54486;51.442;6.778;2023-07-29T02:53:50;100427.97;;;19.25;100.00
67697;BME280;54486;51.442;6.778;2023-07-29T02:56:17;100419.13;;;19.26;100.00
67697;BME280;54486;51.442;6.778;2023-07-29T02:58:44;100433.13;;;19.28;100.00
67697;BME280;54486;51.442;6.778;2023-07-29T03:01:12;100436.69;;;19.27;100.00
67697;BME280;54486;51.442;6.778;2023-07-29T03:03:39;100429.69;;;19.26;100.00
67697;BME280;54486;51.442;6.778;2023-07-29T03:06:08;100429.69;;;19.26;100.00
67697;BME280;54486;51.442;6.778;2023-07-29T03:08:36;100428.84;;;19.26;100.00
67697;BME280;54486;51.442;6.778;2023-07-29T03:11:08;100430.63;;;19.25;100.00
67697;BME280;54486;51.442;6.778;2023-07-29T03:13:36;100426.09;;;19.27;100.00
67697;BME280;54486;51.442;6.778;2023-07-29T03:16:16;100431.41;;;19.27;100.00
67697;BME280;54486;51.442;6.778;2023-07-29T03:18:43;100427.97;;;19.25;100.00
67697;BME280;54486;51.442;6.778;2023-07-29T03:21:11;100426.25;;;19.24;100.00
67697;BME280;54486;51.442;6.778;2023-07-29T03:23:38;100428.13;;;19.22;100.00
67697;BME280;54486;51.442;6.778;2023-07-29T03:26:06;100420.19;;;19.22;100.00
67697;BME280;54486;51.442;6.778;2023-07-29T03:28:39;100412.25;;;19.22;100.00
67697;BME280;54486;51.442;6.778;2023-07-29T03:31:07;100407.88;;;19.21;100.00
67697;BME280;54486;51.442;6.778;2023-07-29T03:33:34;100412.25;;;19.22;100.00
67697;BME280;54486;51.442;6.778;2023-07-29T03:36:02;100391.09;;;19.22;100.00
67697;BME280;54486;51.442;6.778;2023-07-29T03:38:29;100399.94;;;19.21;100.00
67697;BME280;54486;51.442;6.778;2023-07-29T03:40:57;100423.13;;;19.16;100.00
67697;BME280;54486;51.442;6.778;2023-07-29T03:43:24;100416.28;;;19.12;100.00
67697;BME280;54486;51.442;6.778;2023-07-29T03:45:52;100432.13;;;19.12;100.00
67697;BME280;54486;51.442;6.778;2023-07-29T03:48:18;100414.56;;;19.11;100.00
67697;BME280;54486;51.442;6.778;2023-07-29T03:50:46;100416.41;;;19.09;100.00
67697;BME280;54486;51.442;6.778;2023-07-29T03:53:13;100414.69;;;19.08;100.00
67697;BME280;54486;51.442;6.778;2023-07-29T03:55:40;100416.56;;;19.06;100.00
67697;BME280;54486;51.442;6.778;2023-07-29T03:58:07;100418.28;;;19.07;100.00
67697;BME280;54486;51.442;6.778;2023-07-29T04:00:34;100419.34;;;19.03;100.00
67697;BME280;54486;51.442;6.778;2023-07-29T04:03:02;100419.50;;;19.00;100.00
67697;BME280;54486;51.442;6.778;2023-07-29T04:05:29;100433.75;;;18.97;100.00
67697;BME280;54486;51.442;6.778;2023-07-29T04:07:56;100418.88;;;18.95;100.00
67697;BME280;54486;51.442;6.778;2023-07-29T04:10:24;100410.16;;;18.93;100.00
67697;BME280;54486;51.442;6.778;2023-07-29T04:12:50;100404.84;;;18.93;100.00
67697;BME280;54486;51.442;6.778;2023-07-29T04:15:17;100399.72;;;18.90;100.00
67697;BME280;54486;51.442;6.778;2023-07-29T04:17:44;100403.44;;;18.86;100.00
67697;BME280;54486;51.442;6.778;2023-07-29T04:20:12;100400.88;;;18.84;100.00
67697;BME280;54486;51.442;6.778;2023-07-29T04:22:39;100408.88;;;18.83;100.00
67697;BME280;54486;51.442;6.778;2023-07-29T04:25:06;100428.31;;;18.82;100.00
67697;BME280;54486;51.442;6.778;2023-07-29T04:27:33;100424.88;;;18.80;100.00
67697;BME280;54486;51.442;6.778;2023-07-29T04:30:01;100437.31;;;18.78;100.00
67697;BME280;54486;51.442;6.778;2023-07-29T04:32:27;100444.31;;;18.79;100.00
67697;BME280;54486;51.442;6.778;2023-07-29T04:34:55;100452.31;;;18.77;100.00
67697;BME280;54486;51.442;6.778;2023-07-29T04:37:22;100451.44;;;18.77;100.00
67697;BME280;54486;51.442;6.778;2023-07-29T04:39:49;100447.88;;;18.78;100.00
67697;BME280;54486;51.442;6.778;2023-07-29T04:42:17;100456.72;;;18.77;100.00
67697;BME280;54486;51.442;6.778;2023-07-29T04:44:43;100471.88;;;18.73;100.00
67697;BME280;54486;51.442;6.778;2023-07-29T04:47:12;100471.03;;;18.73;100.00
67697;BME280;54486;51.442;6.778;2023-07-29T04:49:39;100477.31;;;18.70;100.00
67697;BME280;54486;51.442;6.778;2023-07-29T04:52:06;100473.03;;;18.68;100.00
67697;BME280;54486;51.442;6.778;2023-07-29T04:54:33;100473.03;;;18.68;100.00
67697;BME280;54486;51.442;6.778;2023-07-29T04:57:01;100461.44;;;18.70;100.00
67697;BME280;54486;51.442;6.778;2023-07-29T04:59:28;100451.72;;;18.71;100.00
67697;BME280;54486;51.442;6.778;2023-07-29T05:01:55;100430.44;;;18.74;100.00
67697;BME280;54486;51.442;6.778;2023-07-29T05:04:23;100426.88;;;18.75;100.00
67697;BME280;54486;51.442;6.778;2023-07-29T05:06:50;100421.75;;;18.72;100.00
67697;BME280;54486;51.442;6.778;2023-07-29T05:09:18;100421.59;;;18.75;100.00
67697;BME280;54486;51.442;6.778;2023-07-29T05:11:46;100431.25;;;18.76;100.00
67697;BME280;54486;51.442;6.778;2023-07-29T05:14:16;100427.78;;;18.74;100.00
67697;BME280;54486;51.442;6.778;2023-07-29T05:16:43;100437.59;;;18.72;100.00
67697;BME280;54486;51.442;6.778;2023-07-29T05:19:11;100422.59;;;18.72;100.00
67697;BME280;54486;51.442;6.778;2023-07-29T05:21:39;100424.44;;;18.70;100.00
67697;BME280;54486;51.442;6.778;2023-07-29T05:24:06;100451.09;;;18.66;100.00
67697;BME280;54486;51.442;6.778;2023-07-29T05:26:34;100459.03;;;18.66;100.00
67697;BME280;54486;51.442;6.778;2023-07-29T05:29:01;100467.88;;;18.65;100.00
67697;BME280;54486;51.442;6.778;2023-07-29T05:31:29;100473.16;;;18.65;100.00
67697;BME280;54486;51.442;6.778;2023-07-29T05:33:56;100474.88;;;18.66;100.00
67697;BME280;54486;51.442;6.778;2023-07-29T05:36:23;100478.44;;;18.65;100.00
67697;BME280;54486;51.442;6.778;2023-07-29T05:38:52;100497.72;;;18.67;100.00
67697;BME280;54486;51.442;6.778;2023-07-29T05:41:19;100492.44;;;18.67;100.00
67697;BME280;54486;51.442;6.778;2023-07-29T05:43:46;100492.44;;;18.67;100.00
67697;BME280;54486;51.442;6.778;2023-07-29T05:46:14;100489.78;;;18.67;100.00
67697;BME280;54486;51.442;6.778;2023-07-29T05:48:41;100487.88;;;18.70;100.00
67697;BME280;54486;51.442;6.778;2023-07-29T05:51:08;100495.88;;;18.69;100.00
67697;BME280;54486;51.442;6.778;2023-07-29T05:53:35;100494.03;;;18.71;100.00
67697;BME280;54486;51.442;6.778;2023-07-29T05:56:03;100497.63;;;18.70;100.00
67697;BME280;54486;51.442;6.778;2023-07-29T05:58:31;100503.00;;;18.67;100.00
67697;BME280;54486;51.442;6.778;2023-07-29T06:00:58;100510.09;;;18.66;100.00
67697;BME280;54486;51.442;6.778;2023-07-29T06:03:26;100514.81;;;18.60;100.00
67697;BME280;54486;51.442;6.778;2023-07-29T06:05:54;100526.28;;;18.59;100.00
67697;BME280;54486;51.442;6.778;2023-07-29T06:08:21;100519.16;;;18.61;100.00
67697;BME280;54486;51.442;6.778;2023-07-29T06:10:48;100510.28;;;18.62;100.00
67697;BME280;54486;51.442;6.778;2023-07-29T06:13:15;100510.16;;;18.65;100.00
67697;BME280;54486;51.442;6.778;2023-07-29T06:15:42;100534.63;;;18.70;100.00
67697;BME280;54486;51.442;6.778;2023-07-29T06:18:09;100529.19;;;18.73;100.00
67697;BME280;54486;51.442;6.778;2023-07-29T06:20:37;100543.19;;;18.75;100.00
67697;BME280;54486;51.442;6.778;2023-07-29T06:23:05;100543.97;;;18.77;100.00
67697;BME280;54486;51.442;6.778;2023-07-29T06:25:32;100532.47;;;18.78;100.00
67697;BME280;54486;51.442;6.778;2023-07-29T06:27:59;100528.78;;;18.82;100.00
67697;BME280;54486;51.442;6.778;2023-07-29T06:30:26;100532.34;;;18.81;100.00
67697;BME280;54486;51.442;6.778;2023-07-29T06:32:53;100529.88;;;18.76;100.00
67697;BME280;54486;51.442;6.778;2023-07-29T06:35:20;100539.34;;;18.82;100.00
67697;BME280;54486;51.442;6.778;2023-07-29T06:37:47;100547.47;;;18.77;100.00
67697;BME280;54486;51.442;6.778;2023-07-29T06:40:14;100555.41;;;18.77;100.00
67697;BME280;54486;51.442;6.778;2023-07-29T06:42:42;100540.41;;;18.78;98.98
67697;BME280;54486;51.442;6.778;2023-07-29T06:45:09;100547.91;;;18.87;100.00
67697;BME280;54486;51.442;6.778;2023-07-29T06:47:37;100545.94;;;18.92;97.36
67697;BME280;54486;51.442;6.778;2023-07-29T06:50:05;100550.00;;;18.99;96.96
67697;BME280;54486;51.442;6.778;2023-07-29T06:52:33;100543.50;;;19.06;96.06
67697;BME280;54486;51.442;6.778;2023-07-29T06:55:00;100531.16;;;19.07;95.10
67697;BME280;54486;51.442;6.778;2023-07-29T06:57:27;100540.53;;;19.14;96.68
67697;BME280;54486;51.442;6.778;2023-07-29T06:59:55;100540.97;;;19.23;95.12
67697;BME280;54486;51.442;6.778;2023-07-29T07:02:22;100540.81;;;19.26;94.03
67697;BME280;54486;51.442;6.778;2023-07-29T07:04:49;100547.81;;;19.27;93.38
67697;BME280;54486;51.442;6.778;2023-07-29T07:07:16;100542.25;;;19.33;92.73
67697;BME280;54486;51.442;6.778;2023-07-29T07:09:43;100531.53;;;19.36;91.80
67697;BME280;54486;51.442;6.778;2023-07-29T07:12:10;100537.59;;;19.38;90.36
67697;BME280;54486;51.442;6.778;2023-07-29T07:14:37;100533.75;;;19.45;92.25
67697;BME280;54486;51.442;6.778;2023-07-29T07:17:05;100541.47;;;19.50;88.27
67697;BME280;54486;51.442;6.778;2023-07-29T07:19:32;100556.41;;;19.51;87.40
67697;BME280;54486;51.442;6.778;2023-07-29T07:21:59;100544.97;;;19.50;86.79
67697;BME280;54486;51.442;6.778;2023-07-29T07:24:27;100545.53;;;19.38;86.08
67697;BME280;54486;51.442;6.778;2023-07-29T07:26:54;100554.53;;;19.34;86.01
67697;BME280;54486;51.442;6.778;2023-07-29T07:29:21;100552.84;;;19.33;88.35
67697;BME280;54486;51.442;6.778;2023-07-29T07:31:52;100542.41;;;19.30;87.82
67697;BME280;54486;51.442;6.778;2023-07-29T07:34:20;100535.38;;;19.29;88.11
67697;BME280;54486;51.442;6.778;2023-07-29T07:36:48;100540.44;;;19.34;87.53
67697;BME280;54486;51.442;6.778;2023-07-29T07:39:15;100551.75;;;19.37;87.55
67697;BME280;54486;51.442;6.778;2023-07-29T07:41:42;100540.44;;;19.34;87.06
67697;BME280;54486;51.442;6.778;2023-07-29T07:44:09;100546.34;;;19.40;88.17
67697;BME280;54486;51.442;6.778;2023-07-29T07:46:38;100541.69;;;19.45;87.89
67697;BME280;54486;51.442;6.778;2023-07-29T07:49:06;100547.97;;;19.62;87.84
67697;BME280;54486;51.442;6.778;2023-07-29T07:51:33;100545.94;;;19.67;87.00
67697;BME280;54486;51.442;6.778;2023-07-29T07:54:00;100547.53;;;19.71;85.70
67697;BME280;54486;51.442;6.778;2023-07-29T07:56:27;100555.31;;;19.74;86.18
67697;BME280;54486;51.442;6.778;2023-07-29T07:58:54;100553.84;;;19.68;86.82
67697;BME280;54486;51.442;6.778;2023-07-29T08:01:21;100550.78;;;19.76;86.57
67697;BME280;54486;51.442;6.778;2023-07-29T08:03:49;100546.31;;;19.78;86.93
67697;BME280;54486;51.442;6.778;2023-07-29T08:06:16;100549.50;;;19.84;85.80
67697;BME280;54486;51.442;6.778;2023-07-29T08:08:43;100550.19;;;19.88;85.80
67697;BME280;54486;51.442;6.778;2023-07-29T08:11:10;100547.88;;;19.99;86.46
67697;BME280;54486;51.442;6.778;2023-07-29T08:13:37;100545.09;;;20.02;86.83
67697;BME280;54486;51.442;6.778;2023-07-29T08:16:04;100554.91;;;20.17;86.23
67697;BME280;54486;51.442;6.778;2023-07-29T08:18:31;100547.94;;;20.33;85.57
67697;BME280;54486;51.442;6.778;2023-07-29T08:21:04;100540.78;;;20.35;86.17
67697;BME280;54486;51.442;6.778;2023-07-29T08:23:34;100541.31;;;20.42;85.92
67697;BME280;54486;51.442;6.778;2023-07-29T08:26:04;100553.13;;;20.52;84.33
67697;BME280;54486;51.442;6.778;2023-07-29T08:28:36;100547.28;;;20.45;84.50
67697;BME280;54486;51.442;6.778;2023-07-29T08:31:04;100538.41;;;20.46;85.12
67697;BME280;54486;51.442;6.778;2023-07-29T08:33:33;100538.25;;;20.49;85.45
67697;BME280;54486;51.442;6.778;2023-07-29T08:36:01;100540.56;;;20.55;85.15
67697;BME280;54486;51.442;6.778;2023-07-29T08:38:29;100548.03;;;20.65;83.92
67697;BME280;54486;51.442;6.778;2023-07-29T08:41:16;100534.72;;;20.66;81.27
67697;BME280;54486;51.442;6.778;2023-07-29T08:43:52;100538.25;;;20.67;80.29
67697;BME280;54486;51.442;6.778;2023-07-29T08:46:20;100530.28;;;20.67;81.03
67697;BME280;54486;51.442;6.778;2023-07-29T08:48:47;100528.22;;;20.72;81.74
67697;BME280;54486;51.442;6.778;2023-07-29T08:51:16;100531.53;;;20.77;82.14
67697;BME280;54486;51.442;6.778;2023-07-29T08:53:46;100529.06;;;20.89;79.71
67697;BME280;54486;51.442;6.778;2023-07-29T08:56:15;100532.78;;;21.02;79.40
67697;BME280;54486;51.442;6.778;2023-07-29T08:58:43;100547.53;;;21.24;79.29
67697;BME280;54486;51.442;6.778;2023-07-29T09:01:10;100548.59;;;21.37;79.07
67697;BME280;54486;51.442;6.778;2023-07-29T09:03:37;100543.69;;;21.45;78.11
67697;BME280;54486;51.442;6.778;2023-07-29T09:06:07;100548.41;;;21.55;76.22
67697;BME280;54486;51.442;6.778;2023-07-29T09:08:36;100552.00;;;21.54;76.83
67697;BME280;54486;51.442;6.778;2023-07-29T09:11:03;100553.53;;;21.58;76.91
67697;BME280;54486;51.442;6.778;2023-07-29T09:13:30;100552.97;;;21.53;76.63
67697;BME280;54486;51.442;6.778;2023-07-29T09:15:58;100560.81;;;21.55;76.48
67697;BME280;54486;51.442;6.778;2023-07-29T09:18:26;100562.28;;;21.60;76.80
67697;BME280;54486;51.442;6.778;2023-07-29T09:20:54;100561.75;;;21.54;77.88
67697;BME280;54486;51.442;6.778;2023-07-29T09:23:21;100562.09;;;21.48;77.88
67697;BME280;54486;51.442;6.778;2023-07-29T09:25:48;100569.38;;;21.44;78.26
67697;BME280;54486;51.442;6.778;2023-07-29T09:28:16;100561.75;;;21.38;78.32
67697;BME280;54486;51.442;6.778;2023-07-29T09:30:45;100572.53;;;21.35;79.63
67697;BME280;54486;51.442;6.778;2023-07-29T09:33:13;100574.78;;;21.27;79.13
67697;BME280;54486;51.442;6.778;2023-07-29T09:35:44;100570.66;;;21.22;80.75
67697;BME280;54486;51.442;6.778;2023-07-29T09:38:14;100569.81;;;21.21;80.80
67697;BME280;54486;51.442;6.778;2023-07-29T09:40:43;100570.16;;;21.15;80.50
67697;BME280;54486;51.442;6.778;2023-07-29T09:43:12;100575.28;;;21.18;80.75
67697;BME280;54486;51.442;6.778;2023-07-29T09:45:39;100571.03;;;21.31;80.48
67697;BME280;54486;51.442;6.778;2023-07-29T09:48:08;100573.41;;;21.36;79.77
67697;BME280;54486;51.442;6.778;2023-07-29T09:50:37;100564.84;;;21.46;79.47
67697;BME280;54486;51.442;6.778;2023-07-29T09:53:06;100559.03;;;21.55;79.35
67697;BME280;54486;51.442;6.778;2023-07-29T09:55:34;100552.50;;;21.61;78.71
67697;BME280;54486;51.442;6.778;2023-07-29T09:58:02;100553.03;;;21.68;78.62
67697;BME280;54486;51.442;6.778;2023-07-29T10:00:31;100536.91;;;21.71;77.67
67697;BME280;54486;51.442;6.778;2023-07-29T10:02:59;100535.38;;;21.82;78.32
67697;BME280;54486;51.442;6.778;2023-07-29T10:05:28;100544.63;;;21.91;76.87
67697;BME280;54486;51.442;6.778;2023-07-29T10:07:57;100548.88;;;22.09;76.39
67697;BME280;54486;51.442;6.778;2023-07-29T10:10:24;100545.59;;;22.20;75.54
67697;BME280;54486;51.442;6.778;2023-07-29T10:12:52;100541.16;;;22.20;75.25
67697;BME280;54486;51.442;6.778;2023-07-29T10:15:20;100540.28;;;22.20;73.19
67697;BME280;54486;51.442;6.778;2023-07-29T10:17:47;100534.97;;;22.20;74.72
67697;BME280;54486;51.442;6.778;2023-07-29T10:20:16;100543.69;;;22.22;74.85
67697;BME280;54486;51.442;6.778;2023-07-29T10:22:46;100549.50;;;22.28;74.26
67697;BME280;54486;51.442;6.778;2023-07-29T10:25:21;100543.16;;;22.31;76.18
67697;BME280;54486;51.442;6.778;2023-07-29T10:28:03;100557.47;;;22.28;74.65
67697;BME280;54486;51.442;6.778;2023-07-29T10:30:32;100548.34;;;22.18;74.22
67697;BME280;54486;51.442;6.778;2023-07-29T10:33:04;100545.50;;;22.21;75.01
67697;BME280;54486;51.442;6.778;2023-07-29T10:35:33;100545.34;;;22.38;75.79
67697;BME280;54486;51.442;6.778;2023-07-29T10:38:02;100552.34;;;22.55;73.68
67697;BME280;54486;51.442;6.778;2023-07-29T10:40:46;100549.56;;;22.56;71.64
67697;BME280;54486;51.442;6.778;2023-07-29T10:43:19;100548.06;;;22.52;73.55
67697;BME280;54486;51.442;6.778;2023-07-29T10:45:50;100542.56;;;22.55;74.32
67697;BME280;54486;51.442;6.778;2023-07-29T10:48:40;100542.38;;;22.58;73.08
67697;BME280;54486;51.442;6.778;2023-07-29T10:51:30;100538.88;;;22.72;74.53
67697;BME280;54486;51.442;6.778;2023-07-29T10:54:10;100535.00;;;22.92;71.40
67697;BME280;54486;51.442;6.778;2023-07-29T10:56:42;100536.13;;;23.02;71.23
67697;BME280;54486;51.442;6.778;2023-07-29T11:01:56;100525.28;;;23.19;71.37
67697;BME280;54486;51.442;6.778;2023-07-29T11:04:28;100529.28;;;23.26;71.13
67697;BME280;54486;51.442;6.778;2023-07-29T11:12:46;100538.41;;;23.22;69.02
67697;BME280;54486;51.442;6.778;2023-07-29T11:15:24;100529.66;;;23.20;69.98
67697;BME280;54486;51.442;6.778;2023-07-29T11:17:59;100536.03;;;23.17;70.18
67697;BME280;54486;51.442;6.778;2023-07-29T11:20:28;100537.81;;;23.17;69.99
67697;BME280;54486;51.442;6.778;2023-07-29T11:22:59;100540.22;;;23.07;69.83
67697;BME280;54486;51.442;6.778;2023-07-29T11:25:28;100541.47;;;23.02;70.60
67697;BME280;54486;51.442;6.778;2023-07-29T11:27:57;100543.19;;;23.03;70.31
67697;BME280;54486;51.442;6.778;2023-07-29T11:30:26;100542.41;;;23.15;70.22
67697;BME280;54486;51.442;6.778;2023-07-29T11:33:01;100541.22;;;23.33;68.29
67697;BME280;54486;51.442;6.778;2023-07-29T11:35:28;100531.75;;;23.43;69.38
67697;BME280;54486;51.442;6.778;2023-07-29T11:37:56;100532.47;;;23.59;67.75
67697;BME280;54486;51.442;6.778;2023-07-29T11:40:25;100532.06;;;23.65;67.13
67697;BME280;54486;51.442;6.778;2023-07-29T11:42:54;100520.13;;;23.71;67.89
67697;BME280;54486;51.442;6.778;2023-07-29T11:45:22;100523.84;;;23.68;67.23
67697;BME280;54486;51.442;6.778;2023-07-29T11:48:06;100513.09;;;23.43;67.05
67697;BME280;54486;51.442;6.778;2023-07-29T11:50:34;100519.16;;;23.45;69.60
67697;BME280;54486;51.442;6.778;2023-07-29T11:53:01;100504.31;;;23.55;68.72
67697;BME280;54486;51.442;6.778;2023-07-29T11:55:29;100505.88;;;23.72;66.51
67697;BME280;54486;51.442;6.778;2023-07-29T11:57:57;100516.97;;;23.79;65.67
67697;BME280;54486;51.442;6.778;2023-07-29T12:00:25;100516.72;;;23.69;65.29
67697;BME280;54486;51.442;6.778;2023-07-29T12:02:53;100517.41;;;23.58;65.06
67697;BME280;54486;51.442;6.778;2023-07-29T12:05:21;100519.59;;;23.93;66.02
67697;BME280;54486;51.442;6.778;2023-07-29T12:07:49;100529.22;;;24.08;64.93
67697;BME280;54486;51.442;6.778;2023-07-29T12:10:17;100518.78;;;24.05;64.05
67697;BME280;54486;51.442;6.778;2023-07-29T12:12:50;100515.31;;;24.17;62.55
67697;BME280;54486;51.442;6.778;2023-07-29T12:15:27;100515.03;;;24.34;64.09
67697;BME280;54486;51.442;6.778;2023-07-29T12:17:59;100505.63;;;24.54;62.82
67697;BME280;54486;51.442;6.778;2023-07-29T12:20:30;100512.44;;;24.45;60.60
67697;BME280;54486;51.442;6.778;2023-07-29T12:23:01;100507.97;;;24.58;62.46
67697;BME280;54486;51.442;6.778;2023-07-29T12:25:29;100506.91;;;24.73;61.80
67697;BME280;54486;51.442;6.778;2023-07-29T12:28:03;100508.63;;;25.00;63.44
67697;BME280;54486;51.442;6.778;2023-07-29T12:30:30;100508.84;;;24.97;62.17
67697;BME280;54486;51.442;6.778;2023-07-29T12:32:57;100512.69;;;24.93;61.48
67697;BME280;54486;51.442;6.778;2023-07-29T12:35:34;100517.72;;;24.85;60.67
67697;BME280;54486;51.442;6.778;2023-07-29T12:38:03;100516.72;;;24.73;61.82
67697;BME280;54486;51.442;6.778;2023-07-29T12:40:30;100510.34;;;25.01;61.64
67697;BME280;54486;51.442;6.778;2023-07-29T12:42:57;100506.03;;;25.23;61.49
67697;BME280;54486;51.442;6.778;2023-07-29T12:45:26;100510.06;;;25.29;63.43
67697;BME280;54486;51.442;6.778;2023-07-29T12:47:56;100504.50;;;25.32;63.59
67697;BME280;54486;51.442;6.778;2023-07-29T12:50:24;100509.44;;;25.62;63.31
67697;BME280;54486;51.442;6.778;2023-07-29T12:52:51;100509.81;;;25.92;59.97
67697;BME280;54486;51.442;6.778;2023-07-29T12:55:19;100499.03;;;26.05;58.67
67697;BME280;54486;51.442;6.778;2023-07-29T12:57:50;100497.91;;;26.20;56.79
67697;BME280;54486;51.442;6.778;2023-07-29T13:00:17;100495.66;;;26.38;57.93
67697;BME280;54486;51.442;6.778;2023-07-29T13:02:45;100502.38;;;26.54;56.64
67697;BME280;54486;51.442;6.778;2023-07-29T13:05:13;100499.91;;;26.40;56.79
67697;BME280;54486;51.442;6.778;2023-07-29T13:07:40;100497.41;;;25.91;56.99
67697;BME280;54486;51.442;6.778;2023-07-29T13:10:11;100505.94;;;25.49;58.10